ELLXLFST

Guest
Details From ELLX - Luxembourg
To LFST - Entzheim
Flight Number -
Tags generated
Created
Modified
Stats Distance 86 nm / 159 km
Max Altitude 3,000 ft / 914 m
Waypoints 3
Social Downloads 3
Likes 0
Share VATSIM

Download

Looking for another format? Having issues loading an existing format? Contact us
Advertisement - Login to hide

Notes

Basic altitude profile: - Ascent Rate: 2500ft/min - Ascent Speed: 250kts - Cruise Altitude: 35000ft - Cruise Speed: 420kts - Descent Rate: 1500ft/min - Descent Speed: 250kts Options: - Use NATs: yes - Use PACOTS: yes - Use low airways: yes - Use high airways: yes

Route

ELLX DIK21 LFST

ID Type Via Altitude Latitude Longitude Leg Dist Tot Dist Heading (true) Name
O ELLX APT - 0 ft / 0 m 49.62660˚ 6.21151˚ - 0 nm - Luxembourg
DIK21 FIX - 3,000 ft / 914 m 49.52333˚ 6.35861˚ 8 nm 8 nm 137° / 137° -
O LFST APT - 0 ft / 0 m 48.53833˚ 7.62826˚ 77 nm 85 nm 139° / 140° Entzheim

Altitude Profile

Advertisement - Login to hide

ELLX

Details ICAO ELLX (LUX)
Name Luxembourg
Region Luxembourg
Timezone Europe/Luxembourg (UTC+2.0)
Stats Elevation 1,158 ft / 353 m (AMSL)
Location 49.626599° 6.211506°
Runways 1
Magnetic Variation 1.748° E

METAR

ELLX 251820Z 08003KT 050V110 CAVOK 23/09 Q1018 NOSIG

Decode

TAF

TAF ELLX 251700Z 2518/2624 08005KT CAVOK PROB40 TEMPO 2602/2608 VRB02KT 4500 BR TEMPO 2609/2618 10010KT

Decode

Departure Runways

ID Width Length Bearing (true) Bearing (mag) Surface Threshold Offset Overrun Length
06 197 ft / 60 m 13,135 ft / 4,004 m 60.14° 58.39° Asphalt 0 ft / 0 m 0 ft / 0 m
24 197 ft / 60 m 13,135 ft / 4,004 m 240.18° 238.43° Asphalt 0 ft / 0 m 180 ft / 55 m

LFST

Details ICAO LFST (SXB)
Name Entzheim
Region France
Timezone Europe/Paris (UTC+2.0)
Stats Elevation 504 ft / 154 m (AMSL)
Location 48.538335° 7.628265°
Runways 1
Magnetic Variation 2.160° E

METAR

LFST 251830Z AUTO 03007KT CAVOK 24/11 Q1017 NOSIG

Decode

TAF

TAF LFST 251700Z 2518/2618 02005KT CAVOK TEMPO 2612/2618 FEW050TCU

Decode

Destination Runways

ID Width Length Bearing (true) Bearing (mag) Surface Threshold Offset Overrun Length
05 148 ft / 45 m 7,899 ft / 2,408 m 48.60° 46.44° Asphalt 0 ft / 0 m 860 ft / 262 m
23 148 ft / 45 m 7,899 ft / 2,408 m 228.62° 226.46° Asphalt 0 ft / 0 m 902 ft / 275 m

Approach Navaids

Runway Type Ident Frequency Range Bearing (true) Bearing (mag) Slope Elevation
05 Localiser ENT 108.55 MHz 18 nm / 33 km 48.63° 46.47° - 499 ft / 152 m (AMSL)
05 Glidescope ENT 108.55 MHz 10 nm / 19 km 48.61° 46.45° 3.50° 561 ft / 171 m (AMSL)
05 DME ENT 108.55 MHz 18 nm / 33 km - - - 504 ft / 154 m (AMSL)
23 Localiser STZ 109.55 MHz 18 nm / 33 km 228.59° 226.43° - 515 ft / 157 m (AMSL)
23 Glidescope STZ 109.55 MHz 10 nm / 19 km 228.61° 226.45° 3.00° 542 ft / 165 m (AMSL)
23 DME STZ 109.55 MHz 18 nm / 33 km - - - 504 ft / 154 m (AMSL)

Popular Alternatives